createdAt,value
2023-03-11T00:00:58.525Z,0.72
2023-03-11T00:03:25.615Z,0.72
2023-03-11T00:05:53.879Z,0.72
2023-03-11T00:08:24.845Z,0.64
2023-03-11T00:10:55.094Z,0.61
2023-03-11T00:13:22.584Z,0.58
2023-03-11T00:15:51.542Z,0.57
2023-03-11T00:18:18.354Z,0.54
2023-03-11T00:20:46.332Z,0.56
2023-03-11T00:23:14.149Z,0.56
2023-03-11T00:25:43.537Z,0.59
2023-03-11T00:28:12.872Z,0.51
2023-03-11T00:30:40.875Z,0.53
2023-03-11T00:33:08.836Z,0.50
2023-03-11T00:35:36.175Z,0.55
2023-03-11T00:38:06.405Z,0.57
2023-03-11T00:40:35.978Z,0.59
2023-03-11T00:43:03.991Z,0.52
2023-03-11T00:45:32.018Z,0.50
2023-03-11T00:47:58.563Z,0.51
2023-03-11T00:50:28.940Z,0.53
2023-03-11T00:52:55.928Z,0.58
2023-03-11T00:55:26.190Z,0.54
2023-03-11T00:57:54.993Z,0.49
2023-03-11T01:00:23.282Z,0.54
2023-03-11T01:02:50.685Z,0.53
2023-03-11T01:05:20.439Z,0.50
2023-03-11T01:07:47.665Z,0.46
2023-03-11T01:10:14.242Z,0.48
2023-03-11T01:12:40.876Z,0.48
2023-03-11T01:15:08.926Z,0.46
2023-03-11T01:17:35.438Z,0.49
2023-03-11T01:20:01.990Z,0.49
2023-03-11T01:22:29.033Z,0.47
2023-03-11T01:24:55.525Z,0.46
2023-03-11T01:27:22.096Z,0.48
2023-03-11T01:29:48.539Z,0.52
2023-03-11T01:32:15.113Z,0.60
2023-03-11T01:34:41.668Z,0.54
2023-03-11T01:37:08.198Z,0.57
2023-03-11T01:39:35.654Z,0.50
2023-03-11T01:42:02.219Z,0.52
2023-03-11T01:44:28.789Z,0.50
2023-03-11T01:46:58.377Z,0.49
2023-03-11T01:49:24.888Z,0.47
2023-03-11T01:51:55.071Z,0.47
2023-03-11T01:54:24.050Z,0.54
2023-03-11T01:56:51.982Z,0.51
2023-03-11T01:59:23.179Z,0.52
2023-03-11T02:02:04.927Z,0.50
2023-03-11T02:04:34.420Z,0.51
2023-03-11T02:07:01.710Z,0.48
2023-03-11T02:09:28.244Z,0.49
2023-03-11T02:11:55.507Z,0.48
2023-03-11T02:14:23.413Z,0.48
2023-03-11T02:16:49.884Z,0.43
2023-03-11T02:19:51.856Z,0.47
2023-03-11T02:22:18.790Z,0.49
2023-03-11T02:25:17.392Z,0.42
2023-03-11T02:27:47.542Z,0.43
2023-03-11T02:30:16.249Z,0.44
2023-03-11T02:32:44.790Z,0.44
2023-03-11T02:35:11.382Z,0.42
2023-03-11T02:37:44.562Z,0.44
2023-03-11T02:40:22.957Z,0.46
2023-03-11T02:42:59.778Z,0.44
2023-03-11T02:45:27.200Z,0.42
2023-03-11T02:47:56.518Z,0.42
2023-03-11T02:50:25.503Z,0.43
2023-03-11T02:52:52.349Z,0.42
2023-03-11T02:55:20.333Z,0.42
2023-03-11T02:57:48.428Z,0.42
2023-03-11T03:00:17.400Z,0.44
2023-03-11T03:02:45.128Z,0.42
2023-03-11T03:05:12.734Z,0.41
2023-03-11T03:07:39.683Z,0.44
2023-03-11T03:10:06.645Z,0.42
2023-03-11T03:12:33.172Z,0.41
2023-03-11T03:14:59.658Z,0.43
2023-03-11T03:17:26.260Z,0.42
2023-03-11T03:19:52.802Z,0.43
2023-03-11T03:22:19.353Z,0.42
2023-03-11T03:24:49.365Z,0.45
2023-03-11T03:27:16.585Z,0.40
2023-03-11T03:29:44.437Z,0.42
2023-03-11T03:32:10.930Z,0.42
2023-03-11T03:34:37.369Z,0.45
2023-03-11T03:37:04.093Z,0.45
2023-03-11T03:39:30.848Z,0.39
2023-03-11T03:41:57.370Z,0.36
2023-03-11T03:44:23.907Z,0.36
2023-03-11T03:46:50.429Z,0.32
2023-03-11T03:49:16.936Z,0.34
2023-03-11T03:51:43.429Z,0.40
2023-03-11T03:54:09.951Z,0.37
2023-03-11T03:56:37.793Z,0.37
2023-03-11T03:59:04.311Z,0.38
2023-03-11T04:01:30.834Z,0.37
2023-03-11T04:03:57.363Z,0.37
2023-03-11T04:06:27.132Z,0.37
2023-03-11T04:08:54.525Z,0.39
2023-03-11T04:11:21.660Z,0.39
2023-03-11T04:13:48.499Z,0.35
2023-03-11T04:16:22.901Z,0.37
2023-03-11T04:18:49.534Z,0.33
2023-03-11T04:21:16.429Z,0.34
2023-03-11T04:23:42.974Z,0.29
2023-03-11T04:26:09.536Z,0.26
2023-03-11T04:28:36.300Z,0.25
2023-03-11T04:31:02.917Z,0.29
2023-03-11T04:33:29.421Z,0.27
2023-03-11T04:35:56.022Z,0.28
2023-03-11T04:38:22.615Z,0.23
2023-03-11T04:40:49.471Z,0.29
2023-03-11T04:43:16.226Z,0.26
2023-03-11T04:45:42.939Z,0.30
2023-03-11T04:48:09.469Z,0.26
2023-03-11T04:50:35.954Z,0.29
2023-03-11T04:53:02.479Z,0.31
2023-03-11T04:55:28.934Z,0.29
2023-03-11T04:57:55.420Z,0.30
2023-03-11T05:00:24.805Z,0.29
2023-03-11T05:02:51.589Z,0.24
2023-03-11T05:05:21.157Z,0.24
2023-03-11T05:07:48.906Z,0.25
2023-03-11T05:10:22.223Z,0.28
2023-03-11T05:12:52.874Z,0.24
2023-03-11T05:15:19.765Z,0.20
2023-03-11T05:17:46.484Z,0.20
2023-03-11T05:20:15.633Z,0.18
2023-03-11T05:22:42.420Z,0.18
2023-03-11T05:25:09.412Z,0.16
2023-03-11T05:27:35.978Z,0.15
2023-03-11T05:30:02.589Z,0.15
2023-03-11T05:32:29.137Z,0.13
2023-03-11T05:34:55.728Z,0.15
2023-03-11T05:37:22.248Z,0.20
2023-03-11T05:39:48.951Z,0.17
2023-03-11T05:42:15.400Z,0.19
2023-03-11T05:44:41.996Z,0.17
2023-03-11T05:47:14.231Z,0.16
2023-03-11T05:49:41.491Z,0.15
2023-03-11T05:52:07.944Z,0.20
2023-03-11T05:54:34.419Z,0.18
2023-03-11T05:57:00.872Z,0.17
2023-03-11T05:59:27.408Z,0.19
2023-03-11T06:01:53.915Z,0.18
2023-03-11T06:04:20.467Z,0.23
2023-03-11T06:06:48.125Z,0.27
2023-03-11T06:09:15.983Z,0.26
2023-03-11T06:11:42.600Z,0.23
2023-03-11T06:14:14.325Z,0.21
2023-03-11T06:16:41.528Z,0.24
2023-03-11T06:19:08.120Z,0.25
2023-03-11T06:21:34.589Z,0.27
2023-03-11T06:24:01.374Z,0.29
2023-03-11T06:26:27.944Z,0.29
2023-03-11T06:28:54.562Z,0.29
2023-03-11T06:31:29.000Z,0.29
2023-03-11T06:33:56.195Z,0.27
2023-03-11T06:36:23.209Z,0.23
2023-03-11T06:38:52.168Z,0.21
2023-03-11T06:41:18.695Z,0.23
2023-03-11T06:43:45.148Z,0.21
2023-03-11T06:46:22.966Z,0.19
2023-03-11T06:48:52.331Z,0.22
2023-03-11T06:51:19.865Z,0.20
2023-03-11T06:53:52.546Z,0.19
2023-03-11T06:56:20.641Z,0.16
2023-03-11T06:58:49.036Z,0.23
2023-03-11T07:01:21.570Z,0.22
2023-03-11T07:03:49.681Z,0.25
2023-03-11T07:06:22.656Z,0.31
2023-03-11T07:08:51.042Z,0.40
2023-03-11T07:11:25.731Z,0.46
2023-03-11T07:13:53.847Z,0.50
2023-03-11T07:16:23.401Z,0.51
2023-03-11T07:18:51.632Z,0.51
2023-03-11T07:21:21.205Z,0.56
2023-03-11T07:23:49.840Z,0.58
2023-03-11T07:26:18.031Z,0.58
2023-03-11T07:28:44.811Z,0.64
2023-03-11T07:31:14.276Z,0.63
2023-03-11T07:33:40.868Z,0.64
2023-03-11T07:36:10.550Z,0.68
2023-03-11T07:38:37.230Z,0.76
2023-03-11T07:41:04.382Z,0.74
2023-03-11T07:43:30.873Z,0.77
2023-03-11T07:46:09.196Z,0.69
2023-03-11T07:48:37.174Z,0.69
2023-03-11T07:51:28.016Z,0.73
2023-03-11T07:53:56.586Z,0.77
2023-03-11T07:56:24.622Z,0.78
2023-03-11T07:58:51.797Z,0.79
2023-03-11T08:01:21.002Z,0.83
2023-03-11T08:03:51.032Z,0.77
2023-03-11T08:06:20.374Z,0.78
2023-03-11T08:08:48.050Z,0.72
2023-03-11T08:11:16.021Z,0.70
2023-03-11T08:13:46.089Z,0.71
2023-03-11T08:16:16.057Z,0.63
2023-03-11T08:18:43.326Z,0.60
2023-03-11T08:21:13.754Z,0.72
2023-03-11T08:23:40.309Z,0.75
2023-03-11T08:26:09.847Z,0.80
2023-03-11T08:28:36.914Z,0.76
2023-03-11T08:31:11.497Z,0.76
2023-03-11T08:33:38.047Z,0.78
2023-03-11T08:36:04.973Z,0.81
2023-03-11T08:38:31.608Z,0.90
2023-03-11T08:40:58.080Z,0.94
2023-03-11T08:43:24.575Z,0.95
2023-03-11T08:45:51.220Z,0.85
2023-03-11T08:48:17.861Z,0.80
2023-03-11T08:50:53.871Z,0.85
2023-03-11T08:53:22.478Z,0.82
2023-03-11T08:55:50.469Z,0.84
2023-03-11T08:58:17.268Z,0.93
2023-03-11T09:00:43.788Z,1.01
2023-03-11T09:03:10.427Z,1.07
2023-03-11T09:05:37.564Z,1.11
2023-03-11T09:08:05.690Z,1.11
2023-03-11T09:10:32.764Z,1.21
2023-03-11T09:12:59.264Z,1.35
2023-03-11T09:15:28.617Z,1.48
2023-03-11T09:17:55.791Z,1.61
2023-03-11T09:20:22.291Z,1.70
2023-03-11T09:22:48.855Z,1.70
2023-03-11T09:25:15.547Z,1.54
2023-03-11T09:27:42.199Z,1.55
2023-03-11T09:30:10.467Z,1.47
2023-03-11T09:32:37.577Z,1.35
2023-03-11T09:35:04.941Z,1.33
2023-03-11T09:37:31.512Z,1.54
2023-03-11T09:39:57.994Z,1.81
2023-03-11T09:43:10.591Z,1.93
2023-03-11T09:45:46.325Z,2.20
2023-03-11T09:48:28.927Z,2.92
2023-03-11T09:51:08.287Z,3.36
2023-03-11T09:53:48.794Z,3.03
2023-03-11T09:56:18.788Z,3.34
2023-03-11T09:58:50.602Z,2.75
2023-03-11T10:01:16.930Z,2.57
2023-03-11T10:03:44.497Z,2.44
2023-03-11T10:06:25.868Z,3.18
2023-03-11T10:09:03.078Z,3.12
2023-03-11T10:11:36.156Z,2.78
2023-03-11T10:14:31.970Z,2.69
2023-03-11T10:17:14.527Z,3.10
2023-03-11T10:19:44.098Z,3.28
2023-03-11T10:22:22.882Z,3.02
2023-03-11T10:24:59.876Z,2.70
2023-03-11T10:27:56.726Z,3.29
2023-03-11T10:30:33.888Z,3.27
2023-03-11T10:33:07.785Z,3.15
2023-03-11T10:35:40.298Z,2.99
2023-03-11T10:38:24.826Z,2.92
2023-03-11T10:40:55.150Z,3.49
2023-03-11T10:44:01.955Z,3.49
2023-03-11T10:46:29.262Z,3.46
2023-03-11T10:48:56.151Z,3.04
2023-03-11T10:51:26.732Z,3.26
2023-03-11T10:53:55.449Z,3.45
2023-03-11T10:56:39.424Z,3.13
2023-03-11T10:59:23.762Z,3.55
2023-03-11T11:02:20.053Z,3.00
2023-03-11T11:04:46.578Z,3.54
2023-03-11T11:07:35.274Z,3.68
2023-03-11T11:10:16.260Z,3.96
2023-03-11T11:13:13.597Z,3.67
2023-03-11T11:15:59.707Z,3.06
2023-03-11T11:18:31.922Z,3.26
2023-03-11T11:21:10.947Z,3.56
2023-03-11T11:23:42.325Z,3.10
2023-03-11T11:26:26.423Z,2.94
2023-03-11T11:29:15.031Z,2.70
2023-03-11T11:31:44.724Z,2.53
2023-03-11T11:34:35.466Z,2.45
2023-03-11T11:37:05.515Z,2.44
2023-03-11T11:40:11.268Z,2.42
2023-03-11T11:42:41.157Z,2.73
2023-03-11T11:45:15.912Z,2.55
2023-03-11T11:47:54.066Z,2.30
2023-03-11T11:50:55.976Z,2.73
2023-03-11T11:53:39.354Z,2.71
2023-03-11T11:56:06.859Z,2.68
2023-03-11T11:58:34.473Z,2.49
2023-03-11T12:01:12.990Z,2.77
2023-03-11T12:04:13.329Z,3.26
2023-03-11T12:07:04.135Z,3.62
2023-03-11T12:09:43.806Z,4.38
2023-03-11T12:12:33.092Z,4.46
2023-03-11T12:15:16.035Z,4.13
2023-03-11T12:17:46.738Z,4.02
2023-03-11T12:20:32.688Z,3.43
2023-03-11T12:23:21.394Z,3.04
2023-03-11T12:25:57.000Z,3.11
2023-03-11T12:28:45.446Z,3.21
2023-03-11T12:31:13.632Z,3.45
2023-03-11T12:33:45.298Z,3.08
2023-03-11T12:36:32.222Z,2.81
2023-03-11T12:39:01.372Z,2.92
2023-03-11T12:41:42.784Z,3.36
2023-03-11T12:44:29.735Z,3.61
2023-03-11T12:46:59.002Z,3.73
2023-03-11T12:49:47.033Z,3.66
2023-03-11T12:52:13.535Z,3.47
2023-03-11T12:55:18.174Z,3.28
2023-03-11T12:57:58.157Z,2.98
2023-03-11T13:00:47.918Z,2.77
2023-03-11T13:03:46.117Z,2.93
2023-03-11T13:06:37.086Z,2.85
2023-03-11T13:09:04.240Z,2.89
2023-03-11T13:11:33.537Z,3.01
2023-03-11T13:14:16.243Z,3.17
2023-03-11T13:16:47.136Z,3.32
2023-03-11T13:19:32.044Z,3.53
2023-03-11T13:22:00.133Z,3.73
2023-03-11T13:24:26.941Z,3.94
2023-03-11T13:27:04.848Z,4.00
2023-03-11T13:29:46.752Z,4.00
2023-03-11T13:32:41.353Z,4.15
2023-03-11T13:35:24.496Z,3.86
2023-03-11T13:38:28.554Z,3.71
2023-03-11T13:40:55.158Z,3.67
2023-03-11T13:43:26.478Z,3.56
2023-03-11T13:46:13.286Z,3.54
2023-03-11T13:48:46.823Z,3.49
2023-03-11T13:51:35.438Z,3.35
2023-03-11T13:54:32.770Z,3.15
2023-03-11T13:57:01.813Z,3.12
2023-03-11T13:59:31.411Z,3.13
2023-03-11T14:02:01.397Z,3.09
2023-03-11T14:04:37.221Z,2.90
2023-03-11T14:07:14.629Z,2.87
2023-03-11T14:09:41.218Z,2.93
2023-03-11T14:12:08.344Z,3.01
2023-03-11T14:14:45.167Z,3.03
2023-03-11T14:17:15.830Z,3.09
2023-03-11T14:19:43.370Z,3.10
2023-03-11T14:22:11.022Z,3.04
2023-03-11T14:24:39.649Z,3.01
2023-03-11T14:27:09.855Z,3.02
2023-03-11T14:29:43.377Z,2.98
2023-03-11T14:32:27.654Z,3.01
2023-03-11T14:34:54.799Z,3.07
2023-03-11T14:37:38.679Z,3.08
2023-03-11T14:40:23.728Z,3.06
2023-03-11T14:42:53.825Z,3.03
2023-03-11T14:45:23.720Z,3.04
2023-03-11T14:47:56.835Z,3.08
2023-03-11T14:50:30.594Z,3.11
2023-03-11T14:53:15.350Z,3.08
2023-03-11T14:55:51.066Z,2.96
2023-03-11T14:58:34.416Z,2.94
2023-03-11T15:01:16.187Z,2.83
2023-03-11T15:03:50.161Z,2.75
2023-03-11T15:06:20.202Z,2.69
2023-03-11T15:09:01.007Z,2.67
2023-03-11T15:11:28.671Z,2.64
2023-03-11T15:14:15.039Z,2.66
2023-03-11T15:16:41.804Z,2.72
2023-03-11T15:19:22.084Z,2.77
2023-03-11T15:21:50.854Z,2.80
2023-03-11T15:24:28.129Z,2.76
2023-03-11T15:27:04.398Z,2.78
2023-03-11T15:29:32.233Z,2.77
2023-03-11T15:31:59.262Z,2.72
2023-03-11T15:34:30.801Z,2.74
2023-03-11T15:37:03.577Z,2.72
2023-03-11T15:39:30.142Z,2.72
2023-03-11T15:42:13.670Z,2.71
2023-03-11T15:44:43.744Z,2.71
2023-03-11T15:47:21.491Z,2.73
2023-03-11T15:49:49.644Z,2.75
2023-03-11T15:52:19.229Z,2.78
2023-03-11T15:54:55.088Z,2.74
2023-03-11T15:57:28.265Z,2.73
2023-03-11T15:59:57.226Z,2.72
2023-03-11T16:02:26.385Z,2.69
2023-03-11T16:04:53.303Z,2.66
2023-03-11T16:07:32.837Z,2.65
2023-03-11T16:10:05.732Z,2.60
2023-03-11T16:12:32.308Z,2.58
2023-03-11T16:14:58.772Z,2.60
2023-03-11T16:17:36.710Z,2.59
2023-03-11T16:20:13.467Z,2.57
2023-03-11T16:22:40.126Z,2.57
2023-03-11T16:25:08.747Z,2.57
2023-03-11T16:27:35.281Z,2.50
2023-03-11T16:30:01.853Z,2.50
2023-03-11T16:32:28.472Z,2.44
2023-03-11T16:34:54.929Z,2.44
2023-03-11T16:37:21.485Z,2.41
2023-03-11T16:39:48.540Z,2.39
2023-03-11T16:42:23.106Z,2.33
2023-03-11T16:44:50.122Z,2.24
2023-03-11T16:47:17.134Z,2.22
2023-03-11T16:49:43.594Z,2.17
2023-03-11T16:52:10.086Z,2.14
2023-03-11T16:54:36.587Z,2.08
2023-03-11T16:57:03.106Z,2.02
2023-03-11T16:59:30.118Z,1.98
2023-03-11T17:01:56.711Z,1.96
2023-03-11T17:04:25.789Z,1.91
2023-03-11T17:06:52.389Z,1.87
2023-03-11T17:09:18.890Z,1.83
2023-03-11T17:11:45.401Z,1.82
2023-03-11T17:14:16.634Z,1.75
2023-03-11T17:16:45.147Z,1.70
2023-03-11T17:19:11.876Z,1.69
2023-03-11T17:21:38.347Z,1.66
2023-03-11T17:24:05.234Z,1.64
2023-03-11T17:26:31.799Z,1.65
2023-03-11T17:28:59.114Z,1.60
2023-03-11T17:31:25.611Z,1.54
2023-03-11T17:33:52.181Z,1.47
2023-03-11T17:36:19.043Z,1.42
2023-03-11T17:38:46.787Z,1.35
2023-03-11T17:41:16.903Z,1.36
2023-03-11T17:43:44.064Z,1.35
2023-03-11T17:46:16.415Z,1.34
2023-03-11T17:48:47.478Z,1.29
2023-03-11T17:51:16.829Z,1.27
2023-03-11T17:53:46.026Z,1.31
2023-03-11T17:56:14.409Z,1.31
2023-03-11T17:58:41.380Z,1.27
2023-03-11T18:01:12.537Z,1.22
2023-03-11T18:03:39.029Z,1.20
2023-03-11T18:06:06.347Z,1.18
2023-03-11T18:08:35.300Z,1.20
2023-03-11T18:11:07.585Z,1.17
2023-03-11T18:13:35.244Z,1.10
2023-03-11T18:16:09.844Z,1.05
2023-03-11T18:18:40.051Z,0.99
2023-03-11T18:21:15.181Z,0.95
2023-03-11T18:23:42.632Z,0.91
2023-03-11T18:26:11.928Z,0.90
2023-03-11T18:28:42.105Z,0.90
2023-03-11T18:31:19.762Z,0.93
2023-03-11T18:33:54.729Z,0.88
2023-03-11T18:36:38.780Z,0.85
2023-03-11T18:39:06.420Z,0.86
2023-03-11T18:41:35.462Z,0.92
2023-03-11T18:44:02.016Z,0.97
2023-03-11T18:46:34.161Z,0.97
2023-03-11T18:49:02.672Z,0.98
2023-03-11T18:51:31.546Z,0.98
2023-03-11T18:53:59.653Z,0.95
2023-03-11T18:56:32.373Z,0.88
2023-03-11T18:58:59.872Z,0.79
2023-03-11T19:01:27.594Z,0.74
2023-03-11T19:03:59.041Z,0.73
2023-03-11T19:06:27.912Z,0.74
2023-03-11T19:08:54.882Z,0.76
2023-03-11T19:11:23.392Z,0.78
2023-03-11T19:13:51.148Z,0.80
2023-03-11T19:16:20.499Z,0.81
2023-03-11T19:18:47.486Z,0.79
2023-03-11T19:21:15.692Z,0.78
2023-03-11T19:23:42.519Z,0.70
2023-03-11T19:26:09.419Z,0.65
2023-03-11T19:28:39.694Z,0.65
2023-03-11T19:31:06.958Z,0.64
2023-03-11T19:33:33.838Z,0.58
2023-03-11T19:36:02.991Z,0.50
2023-03-11T19:38:29.933Z,0.55
2023-03-11T19:41:02.189Z,0.58
2023-03-11T19:43:28.845Z,0.62
2023-03-11T19:45:55.985Z,0.66
2023-03-11T19:48:22.800Z,0.68
2023-03-11T19:50:50.757Z,0.68
2023-03-11T19:53:18.712Z,0.71
2023-03-11T19:55:46.871Z,0.74
2023-03-11T19:58:13.592Z,0.69
2023-03-11T20:00:41.799Z,0.66
2023-03-11T20:03:09.744Z,0.61
2023-03-11T20:05:40.691Z,0.63
2023-03-11T20:08:08.570Z,0.65
2023-03-11T20:10:39.985Z,0.65
2023-03-11T20:13:06.791Z,0.63
2023-03-11T20:15:33.748Z,0.69
2023-03-11T20:18:01.150Z,0.66
2023-03-11T20:20:30.874Z,0.62
2023-03-11T20:22:58.192Z,0.57
2023-03-11T20:25:25.148Z,0.57
2023-03-11T20:27:52.891Z,0.55
2023-03-11T20:30:20.208Z,0.57
2023-03-11T20:32:47.263Z,0.54
2023-03-11T20:35:15.257Z,0.54
2023-03-11T20:37:43.104Z,0.52
2023-03-11T20:40:13.119Z,0.47
2023-03-11T20:42:40.806Z,0.49
2023-03-11T20:45:07.764Z,0.50
2023-03-11T20:47:34.403Z,0.50
2023-03-11T20:50:00.903Z,0.51
2023-03-11T20:52:32.260Z,0.51
2023-03-11T20:54:58.696Z,0.48
2023-03-11T20:57:25.276Z,0.54
2023-03-11T20:59:51.816Z,0.55
2023-03-11T21:02:18.550Z,0.56
2023-03-11T21:04:46.005Z,0.54
2023-03-11T21:07:12.491Z,0.52
2023-03-11T21:09:42.534Z,0.49
2023-03-11T21:12:09.140Z,0.50
2023-03-11T21:14:36.394Z,0.50
2023-03-11T21:17:02.982Z,0.47
2023-03-11T21:19:29.553Z,0.47
2023-03-11T21:21:56.102Z,0.42
2023-03-11T21:24:22.634Z,0.47
2023-03-11T21:26:49.109Z,0.45
2023-03-11T21:29:23.952Z,0.45
2023-03-11T21:31:50.471Z,0.44
2023-03-11T21:34:18.252Z,0.39
2023-03-11T21:36:44.748Z,0.38
2023-03-11T21:39:11.529Z,0.40
2023-03-11T21:41:38.518Z,0.42
2023-03-11T21:44:05.226Z,0.43
2023-03-11T21:46:32.486Z,0.44
2023-03-11T21:48:59.993Z,0.45
2023-03-11T21:51:29.927Z,0.44
2023-03-11T21:53:56.734Z,0.44
2023-03-11T21:56:28.356Z,0.42
2023-03-11T21:58:54.920Z,0.38
2023-03-11T22:01:21.887Z,0.40
2023-03-11T22:03:48.778Z,0.40
2023-03-11T22:06:15.686Z,0.44
2023-03-11T22:08:42.603Z,0.44
2023-03-11T22:11:17.602Z,0.44
2023-03-11T22:13:52.161Z,0.44
2023-03-11T22:16:20.406Z,0.45
2023-03-11T22:18:47.097Z,0.41
2023-03-11T22:21:17.856Z,0.40
2023-03-11T22:23:45.067Z,0.39
2023-03-11T22:26:18.913Z,0.37
2023-03-11T22:28:52.779Z,0.38
2023-03-11T22:31:19.470Z,0.35
2023-03-11T22:33:46.351Z,0.38
2023-03-11T22:36:13.024Z,0.42
2023-03-11T22:38:46.126Z,0.38
2023-03-11T22:41:14.072Z,0.37
2023-03-11T22:43:40.584Z,0.38
2023-03-11T22:46:07.357Z,0.34
2023-03-11T22:48:34.394Z,0.35
2023-03-11T22:51:01.087Z,0.37
2023-03-11T22:53:33.103Z,0.35
2023-03-11T22:55:59.583Z,0.35
2023-03-11T22:58:26.109Z,0.33
2023-03-11T23:00:52.662Z,0.35
2023-03-11T23:03:19.493Z,0.38
2023-03-11T23:05:46.868Z,0.37
2023-03-11T23:08:16.401Z,0.35
2023-03-11T23:10:47.919Z,0.37
2023-03-11T23:13:19.674Z,0.33
2023-03-11T23:15:47.766Z,0.32
2023-03-11T23:18:19.153Z,0.27
2023-03-11T23:20:45.653Z,0.26
2023-03-11T23:23:12.969Z,0.27
2023-03-11T23:25:48.216Z,0.22
2023-03-11T23:28:14.761Z,0.23
2023-03-11T23:30:41.538Z,0.25
2023-03-11T23:33:08.373Z,0.27
2023-03-11T23:35:40.672Z,0.25
2023-03-11T23:38:10.208Z,0.27
2023-03-11T23:40:36.946Z,0.28
2023-03-11T23:43:03.415Z,0.27
2023-03-11T23:45:29.942Z,0.25
2023-03-11T23:47:56.399Z,0.27
2023-03-11T23:50:22.893Z,0.28
2023-03-11T23:52:52.340Z,0.33
2023-03-11T23:55:19.016Z,0.33
2023-03-11T23:57:45.728Z,0.30
